Time;durP1;ratioP1;P1;durP2;ratioP2;P2;SDS_P1;SDS_P2;PMS_P1;PMS_P2;Temp;Humidity;BMP_temperature;BMP_pressure;BME280_temperature;BME280_humidity;BME280_pressure;Samples;Min_cycle;Max_cycle;Signal;HPM_P1;HPM_P2
2021/12/22 00:00:07;;;;;;;5.22;2.65;;;;;;;;;;5092373;28;20134;-74
2021/12/22 00:02:35;;;;;;;5.88;2.67;;;;;;;;;;5090971;28;20461;-74
2021/12/22 00:05:01;;;;;;;4.30;2.50;;;;;;;;;;5091306;28;20494;-74
2021/12/22 00:07:27;;;;;;;4.68;2.17;;;;;;;;;;5090855;28;20048;-73
2021/12/22 00:09:53;;;;;;;5.47;2.42;;;;;;;;;;5091997;28;20035;-73
2021/12/22 00:12:19;;;;;;;4.60;2.33;;;;;;;;;;5091657;28;20571;-73
2021/12/22 00:14:46;;;;;;;5.05;2.58;;;;;;;;;;5092161;28;20101;-73
2021/12/22 00:17:12;;;;;;;4.40;2.22;;;;;;;;;;5092038;28;20055;-73
2021/12/22 00:19:38;;;;;;;3.70;2.03;;;;;;;;;;5091345;28;20131;-73
2021/12/22 00:22:04;;;;;;;3.58;2.00;;;;;;;;;;5090959;28;20048;-73
2021/12/22 00:24:30;;;;;;;8.40;2.47;;;;;;;;;;5091919;28;20066;-75
2021/12/22 00:26:57;;;;;;;8.13;2.58;;;;;;;;;;5090212;28;20036;-73
2021/12/22 00:29:23;;;;;;;9.68;3.00;;;;;;;;;;5091725;28;20059;-73
2021/12/22 00:34:48;;;;;;;4.60;2.75;;;;;;;;;;5086957;28;20079;-73
2021/12/22 00:37:15;;;;;;;5.50;2.72;;;;;;;;;;5091800;28;20095;-73
2021/12/22 00:39:41;;;;;;;7.55;2.80;;;;;;;;;;5090675;28;20409;-73
2021/12/22 00:42:07;;;;;;;4.97;2.70;;;;;;;;;;5091333;28;20051;-74
2021/12/22 00:44:33;;;;;;;6.47;2.72;;;;;;;;;;5092019;28;20040;-73
2021/12/22 00:46:59;;;;;;;5.45;2.65;;;;;;;;;;5090952;28;20165;-74
2021/12/22 00:49:25;;;;;;;9.05;2.65;;;;;;;;;;5092192;28;20049;-74
2021/12/22 00:51:51;;;;;;;6.35;2.55;;;;;;;;;;5090094;28;20493;-73
2021/12/22 00:54:17;;;;;;;7.32;2.58;;;;;;;;;;5090673;28;20460;-73
2021/12/22 00:56:43;;;;;;;7.43;2.67;;;;;;;;;;5091891;28;20040;-73
2021/12/22 00:59:10;;;;;;;7.00;2.70;;;;;;;;;;5091901;28;20117;-73
2021/12/22 01:01:36;;;;;;;7.28;2.53;;;;;;;;;;5091914;28;20590;-74
2021/12/22 01:04:02;;;;;;;4.65;2.65;;;;;;;;;;5091662;28;20047;-74
2021/12/22 01:06:28;;;;;;;9.48;2.80;;;;;;;;;;5090696;28;20075;-73
2021/12/22 01:08:54;;;;;;;7.18;2.38;;;;;;;;;;5091354;28;20114;-73
2021/12/22 01:11:20;;;;;;;6.97;2.30;;;;;;;;;;5091209;28;20060;-73
2021/12/22 01:13:46;;;;;;;6.70;2.58;;;;;;;;;;5091522;28;20052;-72
2021/12/22 01:16:13;;;;;;;6.75;2.65;;;;;;;;;;5091620;28;20055;-73
2021/12/22 01:18:39;;;;;;;8.77;3.10;;;;;;;;;;5091353;28;20044;-74
2021/12/22 01:23:35;;;;;;;4.50;2.30;;;;;;;;;;5091637;28;20051;-74
2021/12/22 01:26:03;;;;;;;4.68;2.58;;;;;;;;;;5090370;28;20048;-73
2021/12/22 01:28:29;;;;;;;5.10;2.95;;;;;;;;;;5091318;28;20048;-73
2021/12/22 01:31:01;;;;;;;9.00;2.83;;;;;;;;;;5091281;28;20052;-74
2021/12/22 01:33:27;;;;;;;8.90;2.75;;;;;;;;;;5090041;28;20047;-74
2021/12/22 01:35:53;;;;;;;6.97;2.40;;;;;;;;;;5090891;28;20052;-72
2021/12/22 01:38:19;;;;;;;6.18;2.13;;;;;;;;;;5090871;28;20126;-72
2021/12/22 01:40:46;;;;;;;4.57;2.42;;;;;;;;;;5091131;28;20136;-73
2021/12/22 01:43:14;;;;;;;4.65;2.47;;;;;;;;;;5090047;28;20095;-72
2021/12/22 01:46:19;;;;;;;5.25;2.42;;;;;;;;;;5089908;28;20375;-72
2021/12/22 01:51:34;;;;;;;5.20;2.35;;;;;;;;;;5090969;28;20979;-72
2021/12/22 01:54:02;;;;;;;4.55;2.25;;;;;;;;;;5090904;28;20079;-72
2021/12/22 01:56:31;;;;;;;6.53;2.78;;;;;;;;;;5089985;28;20051;-74
2021/12/22 01:58:59;;;;;;;4.68;2.53;;;;;;;;;;5090866;28;20054;-74
2021/12/22 02:01:26;;;;;;;4.20;2.00;;;;;;;;;;5088932;28;20105;-74
2021/12/22 02:03:53;;;;;;;3.85;2.03;;;;;;;;;;5089273;28;20963;-74
2021/12/22 02:06:20;;;;;;;3.83;2.13;;;;;;;;;;5090951;28;20134;-74
2021/12/22 02:08:46;;;;;;;4.68;2.00;;;;;;;;;;5090427;28;20040;-74
2021/12/22 02:11:13;;;;;;;5.35;2.28;;;;;;;;;;5089387;28;20090;-74
2021/12/22 02:13:43;;;;;;;7.03;3.28;;;;;;;;;;5089940;28;20134;-74
2021/12/22 02:16:13;;;;;;;3.80;2.20;;;;;;;;;;5090809;28;20047;-74
2021/12/22 02:18:41;;;;;;;5.15;2.58;;;;;;;;;;5090710;28;20052;-74
2021/12/22 02:21:08;;;;;;;4.75;2.10;;;;;;;;;;5090515;28;20458;-74
2021/12/22 02:23:34;;;;;;;6.07;2.10;;;;;;;;;;5089742;28;20465;-74
2021/12/22 02:26:12;;;;;;;4.10;2.17;;;;;;;;;;5090306;28;20160;-74
2021/12/22 02:28:44;;;;;;;3.95;1.92;;;;;;;;;;5088913;28;20051;-74
2021/12/22 02:31:13;;;;;;;8.35;2.42;;;;;;;;;;5090323;28;20130;-74
2021/12/22 02:33:42;;;;;;;4.45;1.92;;;;;;;;;;5089663;28;20417;-73
2021/12/22 02:36:19;;;;;;;9.25;2.55;;;;;;;;;;5090271;28;20076;-76
2021/12/22 02:38:47;;;;;;;8.55;2.20;;;;;;;;;;5090076;28;20418;-73
2021/12/22 02:41:14;;;;;;;5.68;2.33;;;;;;;;;;5089549;28;20048;-73
2021/12/22 02:43:47;;;;;;;7.82;2.30;;;;;;;;;;5089425;28;20418;-73
2021/12/22 02:46:15;;;;;;;5.10;2.17;;;;;;;;;;5088564;28;20181;-73
2021/12/22 02:48:41;;;;;;;4.32;2.17;;;;;;;;;;5088750;28;20414;-73
2021/12/22 02:51:07;;;;;;;5.40;2.00;;;;;;;;;;5089274;28;20043;-73
2021/12/22 02:53:47;;;;;;;4.85;2.20;;;;;;;;;;5089279;28;20040;-72
2021/12/22 02:58:52;;;;;;;5.20;2.13;;;;;;;;;;5088933;28;20139;-74
2021/12/22 03:01:53;;;;;;;;;;;;;;;;;;5089272;28;20055;-74
2021/12/22 03:04:17;;;;;;;4.43;2.00;;;;;;;;;;5089173;28;20365;-74
2021/12/22 03:06:52;;;;;;;7.95;2.20;;;;;;;;;;5089193;28;20433;-74
2021/12/22 03:09:25;;;;;;;6.03;2.40;;;;;;;;;;5088628;28;20493;-74
2021/12/22 03:11:53;;;;;;;4.75;2.13;;;;;;;;;;5089570;28;20419;-74
2021/12/22 03:14:20;;;;;;;4.68;2.33;;;;;;;;;;5088193;28;20534;-74
2021/12/22 03:16:46;;;;;;;4.07;2.13;;;;;;;;;;5088875;28;20044;-75
2021/12/22 03:19:13;;;;;;;4.60;2.00;;;;;;;;;;5089091;28;20086;-75
2021/12/22 03:21:41;;;;;;;4.03;2.20;;;;;;;;;;5089236;28;20135;-75
2021/12/22 03:24:08;;;;;;;5.15;2.33;;;;;;;;;;5089429;28;20040;-75
2021/12/22 03:26:34;;;;;;;4.00;2.25;;;;;;;;;;5089330;28;20123;-74
2021/12/22 03:29:00;;;;;;;3.58;1.88;;;;;;;;;;5089090;28;20044;-75
2021/12/22 03:31:26;;;;;;;4.05;2.30;;;;;;;;;;5089171;28;20100;-75
2021/12/22 03:33:52;;;;;;;3.92;2.25;;;;;;;;;;5089194;28;20127;-74
2021/12/22 03:36:18;;;;;;;3.80;1.90;;;;;;;;;;5088843;28;20133;-74
2021/12/22 03:38:46;;;;;;;4.38;2.00;;;;;;;;;;5089245;28;20521;-75
2021/12/22 03:41:12;;;;;;;3.53;2.00;;;;;;;;;;5089139;28;20431;-75
2021/12/22 03:43:38;;;;;;;4.63;1.90;;;;;;;;;;5088715;28;20051;-75
2021/12/22 03:46:05;;;;;;;5.00;2.05;;;;;;;;;;5089204;28;20498;-75
2021/12/22 03:48:31;;;;;;;4.10;1.85;;;;;;;;;;5089207;28;20130;-75
2021/12/22 03:50:57;;;;;;;3.95;1.83;;;;;;;;;;5089217;28;20036;-75
2021/12/22 03:53:23;;;;;;;3.85;2.10;;;;;;;;;;5088751;28;20044;-74
2021/12/22 03:55:49;;;;;;;8.88;1.83;;;;;;;;;;5088155;28;20596;-74
2021/12/22 03:58:15;;;;;;;6.15;1.98;;;;;;;;;;5088475;28;20044;-74
2021/12/22 04:00:42;;;;;;;4.50;1.75;;;;;;;;;;5088279;28;20075;-74
2021/12/22 04:03:17;;;;;;;3.95;1.90;;;;;;;;;;5088771;28;20525;-74
2021/12/22 04:05:46;;;;;;;2.88;1.70;;;;;;;;;;5088078;28;20048;-75
2021/12/22 04:08:15;;;;;;;4.27;2.03;;;;;;;;;;5088450;28;20040;-74
2021/12/22 04:10:41;;;;;;;3.53;1.92;;;;;;;;;;5087807;28;20363;-74
2021/12/22 04:13:08;;;;;;;10.00;1.90;;;;;;;;;;5087169;28;20453;-74
2021/12/22 04:15:34;;;;;;;8.60;2.15;;;;;;;;;;5088301;28;20055;-73
2021/12/22 04:18:00;;;;;;;5.65;1.88;;;;;;;;;;5088255;28;20128;-73
2021/12/22 04:20:28;;;;;;;4.00;1.73;;;;;;;;;;5087940;28;20059;-73
2021/12/22 04:22:54;;;;;;;4.97;1.80;;;;;;;;;;5089079;28;20135;-73
2021/12/22 04:25:21;;;;;;;4.07;1.85;;;;;;;;;;5087673;28;20047;-73
2021/12/22 04:27:51;;;;;;;4.40;2.08;;;;;;;;;;5090671;28;20060;-73
2021/12/22 04:30:17;;;;;;;4.05;1.70;;;;;;;;;;5073943;28;20451;-73
2021/12/22 04:32:43;;;;;;;3.55;1.98;;;;;;;;;;5092246;28;20140;-73
2021/12/22 04:35:09;;;;;;;3.00;1.60;;;;;;;;;;5091102;28;20044;-73
2021/12/22 04:37:35;;;;;;;3.55;1.70;;;;;;;;;;5092272;28;20044;-73
2021/12/22 04:40:01;;;;;;;3.70;1.80;;;;;;;;;;5092493;28;20127;-73
2021/12/22 04:42:27;;;;;;;2.58;1.60;;;;;;;;;;5091754;28;20050;-73
2021/12/22 04:44:56;;;;;;;2.35;1.50;;;;;;;;;;5091195;28;20040;-73
2021/12/22 04:47:22;;;;;;;4.32;2.53;;;;;;;;;;5092054;28;20089;-73
2021/12/22 04:49:48;;;;;;;4.63;1.77;;;;;;;;;;5090634;28;20058;-75
2021/12/22 04:52:18;;;;;;;5.10;1.83;;;;;;;;;;5092014;28;20420;-76
2021/12/22 04:55:03;;;;;;;6.55;2.20;;;;;;;;;;5074165;28;20409;-76
2021/12/22 04:57:30;;;;;;;5.20;1.52;;;;;;;;;;5090637;28;20048;-77
2021/12/22 04:59:56;;;;;;;7.40;1.70;;;;;;;;;;5092057;28;20048;-77
2021/12/22 05:02:23;;;;;;;4.68;1.80;;;;;;;;;;5090731;28;20282;-77
2021/12/22 05:04:49;;;;;;;3.58;1.90;;;;;;;;;;5091366;28;20047;-77
2021/12/22 05:07:15;;;;;;;2.63;1.40;;;;;;;;;;5091879;28;20084;-77
2021/12/22 05:09:41;;;;;;;4.53;2.28;;;;;;;;;;5091833;28;20526;-74
2021/12/22 05:12:07;;;;;;;6.95;1.70;;;;;;;;;;5091568;28;20051;-75
2021/12/22 05:14:33;;;;;;;3.70;1.50;;;;;;;;;;5091533;28;20417;-75
2021/12/22 05:17:02;;;;;;;2.83;1.70;;;;;;;;;;5091214;28;20492;-76
2021/12/22 05:19:28;;;;;;;4.38;1.60;;;;;;;;;;5091717;28;20127;-74
2021/12/22 05:21:54;;;;;;;5.97;1.85;;;;;;;;;;5090279;28;20048;-74
2021/12/22 05:24:21;;;;;;;5.13;1.50;;;;;;;;;;5091471;28;20040;-74
2021/12/22 05:26:47;;;;;;;7.20;1.90;;;;;;;;;;5090535;28;20120;-74
2021/12/22 05:29:13;;;;;;;2.78;1.60;;;;;;;;;;5089648;28;20506;-74
2021/12/22 05:31:39;;;;;;;3.30;1.27;;;;;;;;;;5091433;28;20432;-74
2021/12/22 05:34:05;;;;;;;3.20;1.50;;;;;;;;;;5091424;28;20040;-74
2021/12/22 05:36:32;;;;;;;2.80;1.40;;;;;;;;;;5091179;28;20040;-74
2021/12/22 05:38:58;;;;;;;4.88;1.80;;;;;;;;;;5090183;28;20105;-75
2021/12/22 05:41:24;;;;;;;4.97;1.75;;;;;;;;;;5091251;28;20516;-75
2021/12/22 05:43:50;;;;;;;4.05;1.52;;;;;;;;;;5091121;28;20047;-75
2021/12/22 05:46:16;;;;;;;3.90;1.70;;;;;;;;;;5091119;28;20036;-74
2021/12/22 05:48:44;;;;;;;4.85;1.30;;;;;;;;;;5091032;28;20097;-74
2021/12/22 05:51:10;;;;;;;2.97;1.45;;;;;;;;;;5090893;28;20138;-74
2021/12/22 05:53:36;;;;;;;3.97;1.45;;;;;;;;;;5090375;28;20486;-74
2021/12/22 05:56:03;;;;;;;2.45;1.40;;;;;;;;;;5090956;28;20120;-74
2021/12/22 05:58:29;;;;;;;3.17;1.70;;;;;;;;;;5090687;28;20083;-74
2021/12/22 06:00:55;;;;;;;3.15;1.60;;;;;;;;;;5089738;28;20091;-74
2021/12/22 06:03:21;;;;;;;4.70;1.60;;;;;;;;;;5090089;28;20059;-74
2021/12/22 06:05:47;;;;;;;3.70;1.70;;;;;;;;;;5090615;28;20090;-74
2021/12/22 06:08:13;;;;;;;2.92;1.75;;;;;;;;;;5089391;28;20043;-74
2021/12/22 06:10:39;;;;;;;4.15;1.73;;;;;;;;;;5089553;28;20051;-74
2021/12/22 06:13:07;;;;;;;2.78;1.48;;;;;;;;;;5090945;28;20136;-74
2021/12/22 06:15:34;;;;;;;2.45;1.48;;;;;;;;;;5089464;28;20054;-74
2021/12/22 06:18:01;;;;;;;3.00;1.60;;;;;;;;;;5089158;28;20043;-74
2021/12/22 06:20:29;;;;;;;2.38;1.40;;;;;;;;;;5090148;28;20058;-74
2021/12/22 06:22:55;;;;;;;3.28;1.50;;;;;;;;;;5090263;28;20044;-74
2021/12/22 06:25:21;;;;;;;2.60;1.42;;;;;;;;;;5090429;28;20044;-74
2021/12/22 06:27:47;;;;;;;3.63;1.48;;;;;;;;;;5090074;28;20040;-74
2021/12/22 06:30:14;;;;;;;2.47;1.45;;;;;;;;;;5089190;28;20044;-74
2021/12/22 06:32:40;;;;;;;6.30;1.98;;;;;;;;;;5088692;28;20056;-74
2021/12/22 06:35:06;;;;;;;3.53;1.40;;;;;;;;;;5090126;28;20141;-74
2021/12/22 06:37:32;;;;;;;3.47;1.58;;;;;;;;;;5089036;28;20043;-74
2021/12/22 06:39:58;;;;;;;2.85;1.50;;;;;;;;;;5089906;28;20040;-74
2021/12/22 06:42:25;;;;;;;2.88;1.60;;;;;;;;;;5089855;28;20051;-76
2021/12/22 06:44:51;;;;;;;5.43;1.52;;;;;;;;;;5072136;28;20563;-76
2021/12/22 06:47:17;;;;;;;8.98;1.58;;;;;;;;;;5089865;28;20052;-76
2021/12/22 06:49:43;;;;;;;2.03;1.27;;;;;;;;;;5088284;28;20044;-76
2021/12/22 06:52:10;;;;;;;3.05;1.50;;;;;;;;;;5090025;28;20097;-76
2021/12/22 06:54:36;;;;;;;2.33;1.40;;;;;;;;;;5089563;28;20040;-76
2021/12/22 06:57:02;;;;;;;3.78;1.98;;;;;;;;;;5090075;28;20466;-78
2021/12/22 06:59:28;;;;;;;3.10;1.67;;;;;;;;;;5087919;28;20452;-75
2021/12/22 07:01:54;;;;;;;3.47;1.65;;;;;;;;;;5090072;28;20052;-75
2021/12/22 07:04:20;;;;;;;3.03;1.63;;;;;;;;;;5090167;28;20036;-75
2021/12/22 07:06:46;;;;;;;3.08;1.85;;;;;;;;;;5089489;28;20075;-75
2021/12/22 07:09:12;;;;;;;3.67;1.50;;;;;;;;;;5088394;28;20525;-75
2021/12/22 07:11:39;;;;;;;2.85;1.38;;;;;;;;;;5089485;28;20055;-75
2021/12/22 07:14:07;;;;;;;3.95;1.60;;;;;;;;;;5088865;28;20052;-75
2021/12/22 07:16:34;;;;;;;6.45;1.42;;;;;;;;;;5089588;28;20127;-76
2021/12/22 07:19:01;;;;;;;2.95;1.40;;;;;;;;;;5085072;28;20255;-76
2021/12/22 07:21:27;;;;;;;4.10;1.45;;;;;;;;;;5088970;28;20140;-77
2021/12/22 07:23:53;;;;;;;4.63;1.63;;;;;;;;;;5089369;28;20036;-75
2021/12/22 07:26:19;;;;;;;9.73;2.40;;;;;;;;;;5089311;28;20055;-75
2021/12/22 07:28:46;;;;;;;3.00;1.90;;;;;;;;;;5089122;28;20418;-74
2021/12/22 07:31:13;;;;;;;9.27;1.90;;;;;;;;;;5089272;28;20471;-74
2021/12/22 07:33:39;;;;;;;7.97;2.10;;;;;;;;;;5071287;28;20100;-76
2021/12/22 07:36:06;;;;;;;3.10;1.70;;;;;;;;;;5089145;28;20044;-76
2021/12/22 07:38:51;;;;;;;6.35;1.52;;;;;;;;;;5089070;28;20489;-75
2021/12/22 07:41:17;;;;;;;3.33;1.90;;;;;;;;;;5089503;28;20055;-75
2021/12/22 07:43:43;;;;;;;7.03;1.85;;;;;;;;;;5087864;28;20056;-75
2021/12/22 07:46:09;;;;;;;11.43;2.58;;;;;;;;;;5087850;28;20085;-75
2021/12/22 07:48:36;;;;;;;4.20;2.00;;;;;;;;;;5088748;28;20127;-75
2021/12/22 07:51:03;;;;;;;5.57;1.95;;;;;;;;;;5089288;28;20414;-75
2021/12/22 07:53:29;;;;;;;4.13;1.80;;;;;;;;;;5088141;28;20044;-75
2021/12/22 07:55:55;;;;;;;7.70;1.95;;;;;;;;;;5088560;28;20055;-75
2021/12/22 07:58:22;;;;;;;3.85;2.00;;;;;;;;;;5089301;28;20410;-75
2021/12/22 08:00:48;;;;;;;3.45;1.90;;;;;;;;;;5089294;28;20052;-75
2021/12/22 08:03:14;;;;;;;4.90;1.85;;;;;;;;;;5092421;28;20048;-75
2021/12/22 08:05:41;;;;;;;3.35;1.80;;;;;;;;;;5093239;28;20059;-75
2021/12/22 08:08:07;;;;;;;4.25;1.73;;;;;;;;;;5092623;28;20536;-74
2021/12/22 08:10:33;;;;;;;4.82;1.90;;;;;;;;;;5091768;28;20484;-76
2021/12/22 08:12:59;;;;;;;4.03;1.90;;;;;;;;;;5092585;28;20052;-74
2021/12/22 08:15:25;;;;;;;6.00;1.98;;;;;;;;;;5093200;28;20482;-75
2021/12/22 08:17:53;;;;;;;4.72;2.00;;;;;;;;;;5091875;28;20583;-74
2021/12/22 08:20:19;;;;;;;5.70;2.10;;;;;;;;;;5091703;28;20507;-74
2021/12/22 08:22:45;;;;;;;4.55;1.92;;;;;;;;;;5092736;28;20059;-74
2021/12/22 08:25:12;;;;;;;2.67;1.73;;;;;;;;;;5093042;28;20044;-75
2021/12/22 08:27:38;;;;;;;3.97;1.88;;;;;;;;;;5092489;28;20044;-74
2021/12/22 08:30:05;;;;;;;2.78;1.83;;;;;;;;;;5092945;28;20046;-74
2021/12/22 08:32:31;;;;;;;3.63;1.95;;;;;;;;;;5092325;28;20494;-74
2021/12/22 08:34:57;;;;;;;3.28;1.63;;;;;;;;;;5092387;28;20134;-75
2021/12/22 08:40:10;;;;;;;4.82;2.00;;;;;;;;;;5092653;28;20052;-74
2021/12/22 08:42:36;;;;;;;3.63;1.90;;;;;;;;;;5092717;28;20093;-75
2021/12/22 08:45:03;;;;;;;3.30;1.98;;;;;;;;;;5091871;28;20039;-73
2021/12/22 08:47:29;;;;;;;4.68;1.98;;;;;;;;;;5092622;28;20132;-73
2021/12/22 08:49:55;;;;;;;13.30;2.17;;;;;;;;;;5091643;28;20460;-72
2021/12/22 08:52:21;;;;;;;4.88;2.20;;;;;;;;;;5092284;28;20055;-73
2021/12/22 08:54:47;;;;;;;6.05;2.97;;;;;;;;;;5091488;28;20059;-73
2021/12/22 08:57:14;;;;;;;6.13;2.22;;;;;;;;;;5091684;28;20047;-74
2021/12/22 08:59:40;;;;;;;6.20;2.63;;;;;;;;;;5092365;28;20052;-72
2021/12/22 09:02:06;;;;;;;5.95;2.40;;;;;;;;;;5092349;28;20052;-72
2021/12/22 09:04:32;;;;;;;3.97;2.00;;;;;;;;;;5090652;28;20051;-73
2021/12/22 09:06:58;;;;;;;4.25;2.55;;;;;;;;;;5091674;28;20048;-74
2021/12/22 09:09:24;;;;;;;5.22;2.20;;;;;;;;;;5092147;28;20490;-73
2021/12/22 09:11:50;;;;;;;9.80;2.65;;;;;;;;;;5091579;28;20059;-72
2021/12/22 09:14:19;;;;;;;6.00;2.88;;;;;;;;;;5090607;28;20117;-73
2021/12/22 09:16:45;;;;;;;6.90;2.50;;;;;;;;;;5090936;28;20055;-73
2021/12/22 09:19:11;;;;;;;7.45;2.63;;;;;;;;;;5091353;28;20044;-73
2021/12/22 09:21:38;;;;;;;10.45;2.63;;;;;;;;;;5091936;28;20051;-71
2021/12/22 09:24:05;;;;;;;7.05;2.55;;;;;;;;;;5091477;28;20119;-70
2021/12/22 09:26:31;;;;;;;10.90;2.83;;;;;;;;;;5091344;28;20457;-71
2021/12/22 09:28:57;;;;;;;6.47;3.08;;;;;;;;;;5091261;28;20054;-74
2021/12/22 09:31:24;;;;;;;9.13;3.03;;;;;;;;;;5090438;28;20048;-73
2021/12/22 09:33:50;;;;;;;12.10;3.45;;;;;;;;;;5091167;28;20040;-73
2021/12/22 09:36:16;;;;;;;9.10;3.50;;;;;;;;;;5089877;28;20134;-72
2021/12/22 09:38:42;;;;;;;7.53;3.15;;;;;;;;;;5091178;28;20040;-72
2021/12/22 09:41:09;;;;;;;8.00;3.40;;;;;;;;;;5091515;28;20098;-73
2021/12/22 09:43:36;;;;;;;10.50;3.45;;;;;;;;;;5090951;28;20066;-72
2021/12/22 09:46:06;;;;;;;6.32;3.55;;;;;;;;;;5091313;28;20871;-72
2021/12/22 09:48:49;;;;;;;8.50;4.13;;;;;;;;;;5090194;28;20040;-71
2021/12/22 09:53:47;;;;;;;9.82;4.13;;;;;;;;;;5091308;28;20040;-73
2021/12/22 09:56:19;;;;;;;6.32;3.55;;;;;;;;;;5090567;28;20047;-72
2021/12/22 09:58:46;;;;;;;11.77;4.03;;;;;;;;;;5090739;28;20398;-73
2021/12/22 10:01:13;;;;;;;10.73;4.30;;;;;;;;;;5089534;28;20060;-70
2021/12/22 10:03:39;;;;;;;11.68;4.63;;;;;;;;;;5072769;28;20130;-70
2021/12/22 10:06:05;;;;;;;7.72;4.30;;;;;;;;;;5090211;28;20032;-71
2021/12/22 10:08:32;;;;;;;10.70;4.78;;;;;;;;;;5088472;28;20047;-72
2021/12/22 10:11:01;;;;;;;8.23;3.92;;;;;;;;;;5088234;28;20414;-72
2021/12/22 10:13:28;;;;;;;8.85;4.47;;;;;;;;;;5089331;28;20463;-73
2021/12/22 10:15:54;;;;;;;9.68;4.72;;;;;;;;;;5087939;28;20040;-72
2021/12/22 10:18:22;;;;;;;8.35;4.50;;;;;;;;;;5089050;28;20466;-72
2021/12/22 10:20:49;;;;;;;9.93;4.80;;;;;;;;;;5089470;28;20040;-72
2021/12/22 10:23:23;;;;;;;8.68;4.45;;;;;;;;;;5087945;28;20070;-73
2021/12/22 10:25:54;;;;;;;8.00;4.40;;;;;;;;;;5087961;28;20051;-72
2021/12/22 10:28:20;;;;;;;10.68;4.82;;;;;;;;;;5087994;28;20087;-72
2021/12/22 10:30:47;;;;;;;10.00;4.53;;;;;;;;;;5087787;28;20189;-72
2021/12/22 10:33:24;;;;;;;12.18;5.88;;;;;;;;;;5087186;28;20040;-72
2021/12/22 10:35:51;;;;;;;17.55;5.88;;;;;;;;;;5087731;28;20101;-72
2021/12/22 10:38:19;;;;;;;16.05;6.35;;;;;;;;;;5087724;28;20494;-72
2021/12/22 10:40:46;;;;;;;18.92;7.18;;;;;;;;;;5087726;28;20047;-72
2021/12/22 10:43:20;;;;;;;21.48;7.50;;;;;;;;;;5088116;28;20169;-70
2021/12/22 10:45:50;;;;;;;16.45;7.72;;;;;;;;;;5086782;28;20104;-70
2021/12/22 10:51:05;;;;;;;19.48;6.95;;;;;;;;;;5087437;28;20055;-70
2021/12/22 10:53:31;;;;;;;20.20;7.65;;;;;;;;;;5086311;28;20142;-71
2021/12/22 10:55:58;;;;;;;20.33;8.65;;;;;;;;;;5085424;28;20032;-70
2021/12/22 10:58:28;;;;;;;15.98;7.63;;;;;;;;;;5087018;28;20075;-70
2021/12/22 11:01:07;;;;;;;19.65;7.82;;;;;;;;;;5088332;28;20128;-69
2021/12/22 11:03:47;;;;;;;17.65;7.78;;;;;;;;;;5087728;28;20059;-71
2021/12/22 11:06:21;;;;;;;17.13;7.63;;;;;;;;;;5087392;28;20050;-69
2021/12/22 11:09:14;;;;;;;16.83;7.40;;;;;;;;;;5087058;28;20512;-72
2021/12/22 11:11:50;;;;;;;18.33;7.88;;;;;;;;;;5085030;28;20097;-70
2021/12/22 11:14:19;;;;;;;15.60;7.40;;;;;;;;;;5088291;28;20055;-69
2021/12/22 11:16:51;;;;;;;11.70;6.75;;;;;;;;;;5089433;28;20048;-70
2021/12/22 11:19:17;;;;;;;17.83;7.47;;;;;;;;;;5088328;28;20058;-71
2021/12/22 11:22:03;;;;;;;14.95;8.25;;;;;;;;;;5088992;28;20096;-69
2021/12/22 11:24:30;;;;;;;15.93;8.02;;;;;;;;;;5089612;28;20087;-71
2021/12/22 11:26:57;;;;;;;16.05;8.13;;;;;;;;;;5089521;28;20461;-71
2021/12/22 11:29:24;;;;;;;18.52;8.63;;;;;;;;;;5089907;28;20093;-70
2021/12/22 11:31:50;;;;;;;14.68;7.78;;;;;;;;;;5089601;28;20051;-70
2021/12/22 11:34:17;;;;;;;15.13;6.88;;;;;;;;;;5089780;28;20079;-70
2021/12/22 11:36:44;;;;;;;17.10;7.70;;;;;;;;;;5088759;28;20040;-75
2021/12/22 11:39:10;;;;;;;12.70;7.22;;;;;;;;;;5089436;28;20048;-71
2021/12/22 11:41:43;;;;;;;13.15;7.00;;;;;;;;;;5088423;28;20499;-71
2021/12/22 11:44:10;;;;;;;15.00;7.35;;;;;;;;;;5069957;28;20064;-70
2021/12/22 11:46:37;;;;;;;13.02;7.50;;;;;;;;;;5069432;28;20041;-72
2021/12/22 11:49:03;;;;;;;13.68;7.10;;;;;;;;;;5089095;28;20044;-74
2021/12/22 11:51:31;;;;;;;13.82;7.43;;;;;;;;;;5089055;28;20056;-73
2021/12/22 11:54:05;;;;;;;13.05;6.88;;;;;;;;;;5071192;28;20055;-71
2021/12/22 11:56:50;;;;;;;18.95;6.95;;;;;;;;;;5089367;28;20048;-71
2021/12/22 11:59:34;;;;;;;14.93;6.47;;;;;;;;;;5089252;28;20055;-71
2021/12/22 12:02:19;;;;;;;13.40;6.35;;;;;;;;;;5088607;28;20105;-72
2021/12/22 12:04:45;;;;;;;15.23;6.60;;;;;;;;;;5089030;28;20131;-71
2021/12/22 12:07:11;;;;;;;14.02;6.80;;;;;;;;;;5089149;28;20077;-71
2021/12/22 12:09:46;;;;;;;13.38;6.43;;;;;;;;;;5089421;28;20048;-71
2021/12/22 12:12:31;;;;;;;15.35;7.13;;;;;;;;;;5088169;28;20129;-72
2021/12/22 12:15:09;;;;;;;12.80;6.75;;;;;;;;;;5088238;28;20066;-72
2021/12/22 12:23:30;;;;;;;12.18;6.85;;;;;;;;;;5087197;28;20109;-72
2021/12/22 12:26:04;;;;;;;13.15;7.35;;;;;;;;;;5088410;28;20493;-72
2021/12/22 12:28:31;;;;;;;12.88;6.25;;;;;;;;;;5087297;28;20037;-71
2021/12/22 12:30:58;;;;;;;11.13;6.53;;;;;;;;;;5087251;28;20044;-72
2021/12/22 12:33:26;;;;;;;11.32;6.63;;;;;;;;;;5088314;28;20044;-71
2021/12/22 12:35:52;;;;;;;12.93;6.95;;;;;;;;;;5088291;28;20052;-71
2021/12/22 12:38:19;;;;;;;12.95;6.70;;;;;;;;;;5089093;28;20044;-71
2021/12/22 12:40:57;;;;;;;11.80;6.50;;;;;;;;;;5088783;28;20044;-72
2021/12/22 12:43:42;;;;;;;11.77;6.25;;;;;;;;;;5088619;28;20044;-72
2021/12/22 12:46:24;;;;;;;11.15;6.00;;;;;;;;;;5088619;28;20083;-71
2021/12/22 12:48:52;;;;;;;9.73;5.97;;;;;;;;;;5089989;28;20040;-70
2021/12/22 12:51:20;;;;;;;11.63;5.68;;;;;;;;;;5092123;28;20493;-70
2021/12/22 12:53:48;;;;;;;11.13;6.57;;;;;;;;;;5092042;28;20502;-71
2021/12/22 12:56:15;;;;;;;9.18;5.70;;;;;;;;;;5092017;28;20497;-71
2021/12/22 12:58:53;;;;;;;10.32;5.47;;;;;;;;;;5092268;28;20036;-71
2021/12/22 13:01:19;;;;;;;10.77;6.47;;;;;;;;;;5090917;28;20044;-72
2021/12/22 13:03:49;;;;;;;8.45;5.40;;;;;;;;;;5091296;28;20044;-72
2021/12/22 13:06:15;;;;;;;10.13;6.45;;;;;;;;;;5092111;28;20040;-72
2021/12/22 13:08:41;;;;;;;11.50;5.97;;;;;;;;;;5091677;28;20076;-71
2021/12/22 13:11:14;;;;;;;9.90;5.75;;;;;;;;;;5091706;28;20089;-71
2021/12/22 13:15:46;;;;;;;10.30;6.53;;;;;;;;;;5091406;28;20172;-72
2021/12/22 13:16:39;;;;;;;9.18;5.65;;;;;;;;;;5090956;28;20044;-71
2021/12/22 13:19:05;;;;;;;16.02;5.88;;;;;;;;;;5090639;28;20044;-73
2021/12/22 13:21:31;;;;;;;20.85;6.38;;;;;;;;;;5091284;28;20052;-73
2021/12/22 13:23:57;;;;;;;15.70;6.40;;;;;;;;;;5091109;28;20036;-73
2021/12/22 13:26:23;;;;;;;10.15;6.07;;;;;;;;;;5090887;28;20409;-73
2021/12/22 13:28:49;;;;;;;13.50;5.78;;;;;;;;;;5090200;28;20051;-74
2021/12/22 13:31:15;;;;;;;12.27;5.80;;;;;;;;;;5090632;28;20043;-74
2021/12/22 13:33:45;;;;;;;8.48;5.00;;;;;;;;;;5090281;28;20156;-73
2021/12/22 13:36:14;;;;;;;12.00;5.60;;;;;;;;;;5090766;28;20067;-73
2021/12/22 13:38:53;;;;;;;12.40;5.63;;;;;;;;;;5090537;28;20611;-73
2021/12/22 13:41:21;;;;;;;14.52;5.90;;;;;;;;;;5090538;28;20500;-73
2021/12/22 13:43:53;;;;;;;11.40;5.90;;;;;;;;;;5089992;28;20075;-73
2021/12/22 13:46:23;;;;;;;8.30;5.43;;;;;;;;;;5072722;28;20101;-73
2021/12/22 13:48:57;;;;;;;10.55;5.45;;;;;;;;;;5089398;28;20397;-73
2021/12/22 13:51:27;;;;;;;8.95;5.18;;;;;;;;;;5090347;28;20397;-74
2021/12/22 13:53:54;;;;;;;10.00;5.30;;;;;;;;;;5088819;28;20086;-74
2021/12/22 13:56:21;;;;;;;9.68;4.75;;;;;;;;;;5090510;28;20052;-74
2021/12/22 13:59:07;;;;;;;11.00;5.60;;;;;;;;;;5090134;28;20044;-74
2021/12/22 14:01:43;;;;;;;12.48;5.43;;;;;;;;;;5073081;28;20052;-73
2021/12/22 14:04:14;;;;;;;12.73;5.13;;;;;;;;;;5090470;28;20055;-72
2021/12/22 14:06:43;;;;;;;9.38;5.20;;;;;;;;;;5089258;28;20383;-73
2021/12/22 14:09:18;;;;;;;10.30;5.30;;;;;;;;;;5090093;28;20507;-73
2021/12/22 14:11:49;;;;;;;8.70;5.22;;;;;;;;;;5089986;28;20058;-74
2021/12/22 14:14:29;;;;;;;9.38;5.53;;;;;;;;;;5090272;28;20048;-74
2021/12/22 14:17:08;;;;;;;9.20;5.05;;;;;;;;;;5090865;28;20048;-72
2021/12/22 14:19:36;;;;;;;9.13;5.38;;;;;;;;;;5090909;28;20093;-71
2021/12/22 14:22:06;;;;;;;11.55;5.68;;;;;;;;;;5090691;28;20470;-72
2021/12/22 14:24:34;;;;;;;8.55;5.10;;;;;;;;;;5090785;28;20050;-71
2021/12/22 14:27:01;;;;;;;7.97;4.82;;;;;;;;;;5090234;28;20477;-71
2021/12/22 14:29:28;;;;;;;9.32;5.47;;;;;;;;;;5089545;28;20067;-72
2021/12/22 14:31:59;;;;;;;9.52;5.60;;;;;;;;;;5089285;28;20051;-71
2021/12/22 14:34:25;;;;;;;10.23;4.95;;;;;;;;;;5090506;28;20090;-73
2021/12/22 14:36:51;;;;;;;9.02;4.93;;;;;;;;;;5088493;28;20126;-72
2021/12/22 14:39:17;;;;;;;12.07;5.45;;;;;;;;;;5089240;28;20052;-71
2021/12/22 14:41:44;;;;;;;18.17;5.22;;;;;;;;;;5089859;28;20083;-71
2021/12/22 14:44:23;;;;;;;12.05;4.78;;;;;;;;;;5088447;28;20147;-72
2021/12/22 14:46:51;;;;;;;;;;;;;;;;;;5090363;28;20640;-72
2021/12/22 14:49:21;;;;;;;8.73;4.63;;;;;;;;;;5090188;28;20373;-72
2021/12/22 14:51:48;;;;;;;8.23;4.72;;;;;;;;;;5089942;28;20043;-72
2021/12/22 14:54:20;;;;;;;8.80;4.82;;;;;;;;;;5088463;28;20097;-72
2021/12/22 14:56:48;;;;;;;7.50;4.72;;;;;;;;;;5089792;28;20044;-72
2021/12/22 14:59:14;;;;;;;6.65;4.45;;;;;;;;;;5089300;28;20486;-74
2021/12/22 15:01:41;;;;;;;8.32;4.65;;;;;;;;;;5088473;28;20105;-71
2021/12/22 15:04:07;;;;;;;7.97;4.90;;;;;;;;;;5089803;28;20044;-72
2021/12/22 15:06:33;;;;;;;7.32;4.45;;;;;;;;;;5088933;28;20040;-73
2021/12/22 15:09:00;;;;;;;7.22;4.85;;;;;;;;;;5089399;28;20040;-73
2021/12/22 15:11:27;;;;;;;7.75;4.85;;;;;;;;;;5088767;28;20588;-73